Search for airport 
image banner adimage banner adimage banner ad
image banner ad

L45 - Bakersfield Muni

Located in Bakersfield, United States

ICAO - L45, IATA -

Data provided by Airmate  

General information

Coordinates: N35°19'30" W118°59'46"
Elevation is 378 feet MSL.
Magnetic variation is 14° East
View others Airports in California

Operational data

Special qualification required
Current time UTC:
Current local time:
Weather at : KBFL - Meadows Field ( 13 km )
METAR: KBFL 240854Z AUTO 32011KT 8SM CLR 22/08 A2992 RMK AO2 SLP126 60000 T02170078 51012
TAF: KBFL 240520Z 2406/2506 33013KT P6SM SKC FM240900 VRB05KT P6SM SKC FM242100 34014G20KT P6SM SKC
View NOTAMs / SUP AIP / TFR affecting this airport [VIEW]
Communications frequencies: [VIEW]

Runways:

RWY identifierQFULength (ft)Width (ft)SurfaceLDA (ft)
16175°400075ASPH
34355°400075ASPH

Airport contact information

Address: Bakersfield United States

Other aviation service providers

Flight schools

Kern Charter Service, Inc.

Kern Charter Service, Inc.
info@kerncharter.com+1(661)834-6870

Satellite view of L45